createdAt,value
2018-03-23T00:00:59.398Z,98.77
2018-03-23T00:03:26.769Z,98.75
2018-03-23T00:05:54.144Z,98.96
2018-03-23T00:08:21.533Z,98.99
2018-03-23T00:10:48.913Z,98.85
2018-03-23T00:13:16.301Z,99.06
2018-03-23T00:15:43.688Z,98.88
2018-03-23T00:18:11.085Z,98.79
2018-03-23T00:20:38.461Z,98.82
2018-03-23T00:23:05.857Z,98.91
2018-03-23T00:25:33.256Z,98.96
2018-03-23T00:28:00.625Z,98.85
2018-03-23T00:30:28.032Z,98.65
2018-03-23T00:32:55.408Z,98.48
2018-03-23T00:35:22.797Z,98.23
2018-03-23T00:37:50.178Z,98.48
2018-03-23T00:40:17.576Z,98.50
2018-03-23T00:42:44.954Z,98.39
2018-03-23T00:45:12.344Z,98.16
2018-03-23T00:47:39.736Z,98.03
2018-03-23T00:50:07.119Z,98.04
2018-03-23T00:52:34.492Z,98.19
2018-03-23T00:55:01.886Z,98.29
2018-03-23T00:57:29.268Z,98.23
2018-03-23T00:59:56.663Z,97.76
2018-03-23T01:02:24.042Z,97.64
2018-03-23T01:04:51.421Z,97.75
2018-03-23T01:07:18.812Z,97.69
2018-03-23T01:09:46.188Z,97.73
2018-03-23T01:12:13.579Z,97.69
2018-03-23T01:14:40.965Z,97.71
2018-03-23T01:17:08.355Z,97.84
2018-03-23T01:19:35.732Z,97.92
2018-03-23T01:22:03.115Z,98.11
2018-03-23T01:24:30.495Z,98.05
2018-03-23T01:26:57.902Z,97.93
2018-03-23T01:29:25.284Z,97.93
2018-03-23T01:31:52.680Z,97.97
2018-03-23T01:34:20.057Z,97.80
2018-03-23T01:36:47.460Z,97.83
2018-03-23T01:39:14.837Z,97.83
2018-03-23T01:41:42.241Z,97.84
2018-03-23T01:44:09.622Z,97.77
2018-03-23T01:46:37.011Z,97.73
2018-03-23T01:49:04.411Z,97.69
2018-03-23T01:51:31.795Z,97.58
2018-03-23T01:53:59.172Z,97.72
2018-03-23T01:56:26.578Z,97.63
2018-03-23T01:58:53.970Z,97.69
2018-03-23T02:01:21.353Z,97.66
2018-03-23T02:03:48.762Z,97.61
2018-03-23T02:06:16.144Z,97.44
2018-03-23T02:08:43.545Z,97.50
2018-03-23T02:11:10.916Z,97.55
2018-03-23T02:13:38.312Z,97.46
2018-03-23T02:16:05.693Z,97.30
2018-03-23T02:18:33.101Z,97.49
2018-03-23T02:21:00.477Z,97.58
2018-03-23T02:23:27.857Z,97.76
2018-03-23T02:25:55.248Z,97.72
2018-03-23T02:28:22.628Z,97.72
2018-03-23T02:30:50.017Z,97.70
2018-03-23T02:33:17.419Z,97.82
2018-03-23T02:35:44.811Z,97.88
2018-03-23T02:38:12.201Z,97.95
2018-03-23T02:40:39.581Z,98.00
2018-03-23T02:43:06.962Z,98.07
2018-03-23T02:45:34.358Z,97.80
2018-03-23T02:48:01.730Z,97.76
2018-03-23T02:50:29.117Z,97.70
2018-03-23T02:52:56.493Z,97.78
2018-03-23T02:55:23.881Z,97.71
2018-03-23T02:57:51.263Z,97.89
2018-03-23T03:00:18.659Z,97.97
2018-03-23T03:02:46.034Z,97.68
2018-03-23T03:05:13.416Z,97.73
2018-03-23T03:07:40.806Z,97.81
2018-03-23T03:10:08.195Z,98.07
2018-03-23T03:12:35.596Z,98.16
2018-03-23T03:15:02.974Z,97.39
2018-03-23T03:17:30.360Z,97.74
2018-03-23T03:19:57.737Z,97.83
2018-03-23T03:22:25.128Z,97.87
2018-03-23T03:24:52.524Z,97.97
2018-03-23T03:27:19.920Z,97.99
2018-03-23T03:29:47.300Z,98.16
2018-03-23T03:32:14.696Z,98.27
2018-03-23T03:34:42.082Z,98.76
2018-03-23T03:37:09.471Z,99.65
2018-03-23T03:39:36.860Z,99.90
2018-03-23T03:42:04.256Z,99.98
2018-03-23T03:44:31.639Z,99.94
2018-03-23T03:46:59.023Z,99.97
2018-03-23T03:49:26.406Z,100.00
2018-03-23T03:51:53.793Z,100.00
2018-03-23T03:54:21.185Z,100.00
2018-03-23T03:56:48.569Z,100.00
2018-03-23T03:59:15.969Z,100.00
2018-03-23T04:01:43.358Z,100.00
2018-03-23T04:04:10.744Z,100.00
2018-03-23T04:06:38.137Z,100.00
2018-03-23T04:09:05.542Z,100.00
2018-03-23T04:11:32.928Z,100.00
2018-03-23T04:14:00.330Z,100.00
2018-03-23T04:16:27.738Z,100.00
2018-03-23T04:18:55.137Z,100.00
2018-03-23T04:21:22.555Z,100.00
2018-03-23T04:23:49.953Z,100.00
2018-03-23T04:26:17.348Z,100.00
2018-03-23T04:28:44.728Z,100.00
2018-03-23T04:31:12.158Z,100.00
2018-03-23T04:33:39.544Z,100.00
2018-03-23T04:36:06.924Z,100.00
2018-03-23T04:38:35.239Z,100.00
2018-03-23T04:41:02.631Z,100.00
2018-03-23T04:43:30.016Z,100.00
2018-03-23T04:45:57.405Z,100.00
2018-03-23T04:48:24.798Z,100.00
2018-03-23T04:50:52.228Z,100.00
2018-03-23T04:53:19.605Z,100.00
2018-03-23T04:55:47.005Z,100.00
2018-03-23T04:58:14.384Z,100.00
2018-03-23T05:00:41.792Z,100.00
2018-03-23T05:03:09.174Z,100.00
2018-03-23T05:05:36.579Z,100.00
2018-03-23T05:08:03.992Z,100.00
2018-03-23T05:10:31.339Z,100.00
2018-03-23T05:12:58.739Z,100.00
2018-03-23T05:15:26.125Z,99.81
2018-03-23T05:17:53.504Z,99.94
2018-03-23T05:20:20.894Z,100.00
2018-03-23T05:22:48.320Z,100.00
2018-03-23T05:25:15.704Z,99.78
2018-03-23T05:27:43.104Z,99.40
2018-03-23T05:30:10.503Z,99.36
2018-03-23T05:32:37.880Z,98.90
2018-03-23T05:35:05.286Z,98.74
2018-03-23T05:37:33.213Z,98.81
2018-03-23T05:40:00.595Z,98.58
2018-03-23T05:42:28.017Z,98.23
2018-03-23T05:44:55.416Z,98.37
2018-03-23T05:47:22.808Z,98.21
2018-03-23T05:49:50.235Z,98.27
2018-03-23T05:52:19.033Z,97.94
2018-03-23T05:54:46.420Z,97.46
2018-03-23T05:57:13.844Z,97.42
2018-03-23T05:59:41.244Z,97.68
2018-03-23T06:02:08.865Z,96.73
2018-03-23T06:04:36.289Z,96.86
2018-03-23T06:07:03.682Z,96.76
2018-03-23T06:09:31.066Z,96.15
2018-03-23T06:11:58.448Z,96.04
2018-03-23T06:14:25.825Z,96.07
2018-03-23T06:16:53.216Z,96.29
2018-03-23T06:19:20.609Z,96.91
2018-03-23T06:21:47.987Z,96.57
2018-03-23T06:24:15.373Z,96.46
2018-03-23T06:26:42.768Z,96.58
2018-03-23T06:29:10.147Z,96.32
2018-03-23T06:31:37.534Z,96.51
2018-03-23T06:34:04.914Z,96.74
2018-03-23T06:36:32.321Z,96.41
2018-03-23T06:38:59.702Z,96.57
2018-03-23T06:41:27.146Z,96.75
2018-03-23T06:43:54.479Z,96.57
2018-03-23T06:46:21.869Z,96.65
2018-03-23T06:48:49.245Z,96.75
2018-03-23T06:51:16.636Z,96.54
2018-03-23T06:53:44.058Z,96.34
2018-03-23T06:56:11.434Z,96.05
2018-03-23T06:58:38.814Z,96.17
2018-03-23T07:01:06.193Z,95.42
2018-03-23T07:03:33.579Z,94.74
2018-03-23T07:06:00.974Z,94.68
2018-03-23T07:08:28.351Z,94.20
2018-03-23T07:10:55.776Z,93.91
2018-03-23T07:13:23.112Z,94.19
2018-03-23T07:15:50.488Z,94.46
2018-03-23T07:18:17.889Z,94.66
2018-03-23T07:20:45.268Z,94.35
2018-03-23T07:23:12.653Z,93.72
2018-03-23T07:25:40.030Z,93.82
2018-03-23T07:28:07.413Z,93.89
2018-03-23T07:30:34.792Z,93.99
2018-03-23T07:33:02.224Z,94.21
2018-03-23T07:35:29.570Z,94.44
2018-03-23T07:37:56.962Z,94.62
2018-03-23T07:40:24.337Z,94.75
2018-03-23T07:42:51.722Z,94.76
2018-03-23T07:45:19.101Z,95.94
2018-03-23T07:47:46.488Z,95.78
2018-03-23T07:50:14.753Z,95.02
2018-03-23T07:52:42.136Z,95.05
2018-03-23T07:55:09.525Z,95.22
2018-03-23T07:57:36.904Z,95.38
2018-03-23T08:00:04.301Z,95.41
2018-03-23T08:02:31.677Z,95.17
2018-03-23T08:04:59.061Z,95.71
2018-03-23T08:07:26.440Z,95.69
2018-03-23T08:09:53.825Z,95.49
2018-03-23T08:12:21.207Z,95.15
2018-03-23T08:14:48.589Z,95.17
2018-03-23T08:17:15.969Z,94.72
2018-03-23T08:19:43.353Z,94.75
2018-03-23T08:22:10.728Z,94.57
2018-03-23T08:24:38.117Z,93.84
2018-03-23T08:27:05.504Z,93.30
2018-03-23T08:29:32.909Z,93.47
2018-03-23T08:32:00.288Z,93.51
2018-03-23T08:34:27.664Z,92.93
2018-03-23T08:36:55.052Z,92.60
2018-03-23T08:39:22.424Z,91.80
2018-03-23T08:41:49.810Z,91.75
2018-03-23T08:44:17.221Z,91.70
2018-03-23T08:46:44.572Z,90.98
2018-03-23T08:49:11.952Z,91.68
2018-03-23T08:51:39.345Z,91.24
2018-03-23T08:54:07.197Z,91.23
2018-03-23T08:56:34.571Z,91.67
2018-03-23T08:59:01.962Z,90.68
2018-03-23T09:01:29.337Z,90.30
2018-03-23T09:03:56.719Z,90.89
2018-03-23T09:06:24.112Z,91.44
2018-03-23T09:08:51.489Z,90.39
2018-03-23T09:11:18.869Z,90.17
2018-03-23T09:13:46.560Z,90.76
2018-03-23T09:16:13.945Z,90.16
2018-03-23T09:18:41.340Z,90.34
2018-03-23T09:21:08.726Z,90.37
2018-03-23T09:23:36.100Z,89.84
2018-03-23T09:26:03.492Z,90.32
2018-03-23T09:28:30.885Z,89.86
2018-03-23T09:30:58.261Z,89.83
2018-03-23T09:33:25.641Z,88.46
2018-03-23T09:35:53.049Z,89.40
2018-03-23T09:38:20.431Z,88.27
2018-03-23T09:40:47.822Z,87.40
2018-03-23T09:43:15.637Z,86.16
2018-03-23T09:45:43.021Z,87.36
2018-03-23T09:48:10.408Z,85.61
2018-03-23T09:50:37.792Z,86.01
2018-03-23T09:53:05.172Z,86.58
2018-03-23T09:55:32.557Z,84.22
2018-03-23T09:57:59.965Z,84.15
2018-03-23T10:00:27.345Z,83.06
2018-03-23T10:02:54.743Z,82.80
2018-03-23T10:05:22.475Z,82.21
2018-03-23T10:07:49.859Z,84.65
2018-03-23T10:10:17.232Z,83.81
2018-03-23T10:12:44.624Z,83.54
2018-03-23T10:15:12.079Z,82.24
2018-03-23T10:17:39.447Z,81.86
2018-03-23T10:20:06.846Z,81.23
2018-03-23T10:22:34.300Z,79.68
2018-03-23T10:25:01.691Z,79.55
2018-03-23T10:27:29.093Z,75.96
2018-03-23T10:29:56.448Z,78.50
2018-03-23T10:32:23.832Z,78.83
2018-03-23T10:34:51.236Z,79.37
2018-03-23T10:37:18.621Z,78.50
2018-03-23T10:39:46.000Z,79.89
2018-03-23T10:42:13.396Z,78.77
2018-03-23T10:44:40.773Z,80.22
2018-03-23T10:47:08.156Z,80.13
2018-03-23T10:49:35.540Z,80.43
2018-03-23T10:52:02.921Z,79.35
2018-03-23T10:54:30.302Z,79.18
2018-03-23T10:56:57.705Z,79.15
2018-03-23T10:59:25.084Z,79.72
2018-03-23T11:01:58.078Z,79.12
2018-03-23T11:04:25.456Z,80.29
2018-03-23T11:06:52.844Z,79.42
2018-03-23T11:09:20.233Z,78.08
2018-03-23T11:11:47.616Z,77.10
2018-03-23T11:14:14.996Z,76.58
2018-03-23T11:16:42.697Z,76.80
2018-03-23T11:19:10.069Z,76.63
2018-03-23T11:21:37.456Z,78.15
2018-03-23T11:24:04.845Z,77.31
2018-03-23T11:26:32.247Z,77.27
2018-03-23T11:28:59.612Z,78.52
2018-03-23T11:31:27.001Z,78.50
2018-03-23T11:33:54.381Z,76.74
2018-03-23T11:36:21.761Z,77.52
2018-03-23T11:38:49.182Z,76.94
2018-03-23T11:41:16.588Z,76.71
2018-03-23T11:43:43.969Z,76.21
2018-03-23T11:46:11.373Z,76.41
2018-03-23T11:48:38.761Z,76.79
2018-03-23T11:51:06.142Z,77.79
2018-03-23T11:53:33.537Z,76.00
2018-03-23T11:56:00.914Z,76.42
2018-03-23T11:58:28.301Z,76.30
2018-03-23T12:00:55.703Z,76.50
2018-03-23T12:03:23.094Z,77.18
2018-03-23T12:05:50.733Z,76.94
2018-03-23T12:08:18.140Z,76.91
2018-03-23T12:10:45.510Z,76.88
2018-03-23T12:13:12.913Z,76.52
2018-03-23T12:15:40.617Z,76.92
2018-03-23T12:18:08.005Z,76.55
2018-03-23T12:20:35.394Z,76.35
2018-03-23T12:23:02.853Z,76.39
2018-03-23T12:25:30.264Z,75.11
2018-03-23T12:27:57.661Z,75.65
2018-03-23T12:30:25.065Z,76.07
2018-03-23T12:32:52.496Z,76.73
2018-03-23T12:35:19.877Z,77.35
2018-03-23T12:37:47.300Z,77.07
2018-03-23T12:40:14.660Z,75.45
2018-03-23T12:42:42.047Z,76.37
2018-03-23T12:45:09.732Z,77.86
2018-03-23T12:47:37.120Z,77.01
2018-03-23T12:50:04.485Z,77.49
2018-03-23T12:52:31.868Z,77.68
2018-03-23T12:54:59.251Z,77.71
2018-03-23T12:57:26.626Z,77.16
2018-03-23T12:59:54.021Z,76.79
2018-03-23T13:02:21.399Z,77.55
2018-03-23T13:04:48.777Z,78.23
2018-03-23T13:07:16.160Z,78.14
2018-03-23T13:09:43.539Z,77.68
2018-03-23T13:12:10.928Z,75.34
2018-03-23T13:14:38.357Z,74.86
2018-03-23T13:17:05.728Z,75.61
2018-03-23T13:19:33.108Z,76.31
2018-03-23T13:22:00.653Z,76.80
2018-03-23T13:24:28.023Z,76.85
2018-03-23T13:26:55.405Z,76.94
2018-03-23T13:29:22.817Z,77.39
2018-03-23T13:31:50.210Z,76.39
2018-03-23T13:34:17.588Z,75.32
2018-03-23T13:36:44.977Z,75.87
2018-03-23T13:39:12.365Z,75.55
2018-03-23T13:41:39.757Z,76.80
2018-03-23T13:44:07.150Z,76.33
2018-03-23T13:46:34.529Z,76.61
2018-03-23T13:49:01.909Z,75.68
2018-03-23T13:51:29.580Z,75.88
2018-03-23T13:53:56.968Z,76.50
2018-03-23T13:56:24.346Z,76.66
2018-03-23T13:58:57.290Z,76.12
2018-03-23T14:01:30.282Z,76.51
2018-03-23T14:03:57.677Z,77.16
2018-03-23T14:06:25.078Z,76.96
2018-03-23T14:08:52.454Z,76.73
2018-03-23T14:11:19.962Z,75.00
2018-03-23T14:13:47.344Z,75.78
2018-03-23T14:16:14.733Z,76.60
2018-03-23T14:18:42.126Z,77.18
2018-03-23T14:21:09.534Z,76.99
2018-03-23T14:23:36.912Z,76.31
2018-03-23T14:26:04.396Z,77.75
2018-03-23T14:28:31.773Z,78.09
2018-03-23T14:30:59.156Z,77.30
2018-03-23T14:33:26.540Z,78.20
2018-03-23T14:35:53.925Z,76.89
2018-03-23T14:38:21.309Z,77.71
2018-03-23T14:40:48.746Z,78.33
2018-03-23T14:43:16.141Z,77.49
2018-03-23T14:45:43.527Z,78.56
2018-03-23T14:48:10.937Z,78.84
2018-03-23T14:50:38.333Z,78.05
2018-03-23T14:53:05.705Z,79.13
2018-03-23T14:55:33.150Z,79.00
2018-03-23T14:58:00.629Z,79.07
2018-03-23T15:00:28.020Z,79.09
2018-03-23T15:02:55.412Z,78.56
2018-03-23T15:05:22.837Z,78.89
2018-03-23T15:07:50.182Z,78.84
2018-03-23T15:10:17.571Z,78.22
2018-03-23T15:12:44.950Z,78.80
2018-03-23T15:15:12.335Z,78.02
2018-03-23T15:17:39.720Z,78.78
2018-03-23T15:20:07.106Z,78.73
2018-03-23T15:22:34.511Z,78.81
2018-03-23T15:25:02.214Z,78.40
2018-03-23T15:27:29.593Z,77.99
2018-03-23T15:29:56.973Z,78.62
2018-03-23T15:32:24.361Z,77.11
2018-03-23T15:34:51.757Z,77.62
2018-03-23T15:37:19.139Z,76.94
2018-03-23T15:39:46.532Z,77.21
2018-03-23T15:42:13.918Z,77.25
2018-03-23T15:44:41.296Z,76.93
2018-03-23T15:47:08.702Z,77.60
2018-03-23T15:49:36.068Z,77.88
2018-03-23T15:52:03.460Z,78.69
2018-03-23T15:54:30.868Z,78.14
2018-03-23T15:56:58.240Z,77.92
2018-03-23T15:59:25.672Z,77.42
2018-03-23T16:01:53.104Z,78.26
2018-03-23T16:04:20.448Z,78.05
2018-03-23T16:06:47.850Z,77.87
2018-03-23T16:09:15.237Z,78.03
2018-03-23T16:11:42.612Z,77.65
2018-03-23T16:14:09.997Z,77.21
2018-03-23T16:16:37.413Z,77.80
2018-03-23T16:19:04.836Z,77.07
2018-03-23T16:21:32.212Z,77.46
2018-03-23T16:23:59.605Z,77.83
2018-03-23T16:26:27.084Z,77.82
2018-03-23T16:28:54.399Z,77.85
2018-03-23T16:31:21.821Z,76.95
2018-03-23T16:33:49.206Z,77.21
2018-03-23T16:36:16.588Z,77.91
2018-03-23T16:38:44.002Z,77.49
2018-03-23T16:41:11.427Z,77.33
2018-03-23T16:43:38.804Z,78.12
2018-03-23T16:46:06.200Z,78.42
2018-03-23T16:48:33.589Z,78.65
2018-03-23T16:51:00.974Z,78.53
2018-03-23T16:53:28.366Z,78.22
2018-03-23T16:55:55.748Z,78.43
2018-03-23T16:58:23.134Z,78.12
2018-03-23T17:00:50.579Z,78.35
2018-03-23T17:03:17.960Z,78.49
2018-03-23T17:05:45.344Z,78.31
2018-03-23T17:08:12.817Z,78.74
2018-03-23T17:10:40.236Z,78.89
2018-03-23T17:13:07.656Z,78.65
2018-03-23T17:15:35.056Z,78.35
2018-03-23T17:18:02.441Z,78.80
2018-03-23T17:20:29.826Z,79.43
2018-03-23T17:22:57.457Z,79.06
2018-03-23T17:25:24.846Z,78.96
2018-03-23T17:27:52.217Z,79.64
2018-03-23T17:30:19.624Z,79.87
2018-03-23T17:32:47.006Z,80.04
2018-03-23T17:35:14.386Z,80.10
2018-03-23T17:37:41.792Z,79.75
2018-03-23T17:40:09.233Z,80.08
2018-03-23T17:42:36.608Z,79.81
2018-03-23T17:45:04.103Z,79.13
2018-03-23T17:47:31.504Z,79.13
2018-03-23T17:49:58.965Z,79.09
2018-03-23T17:52:26.355Z,79.42
2018-03-23T17:54:53.741Z,78.88
2018-03-23T17:57:21.121Z,78.47
2018-03-23T17:59:48.521Z,79.09
2018-03-23T18:02:15.953Z,79.32
2018-03-23T18:04:43.377Z,79.25
2018-03-23T18:07:11.093Z,79.01
2018-03-23T18:09:38.469Z,79.11
2018-03-23T18:12:05.867Z,79.15
2018-03-23T18:14:33.264Z,79.46
2018-03-23T18:17:00.654Z,79.13
2018-03-23T18:19:28.036Z,79.44
2018-03-23T18:21:55.456Z,79.45
2018-03-23T18:24:22.837Z,79.30
2018-03-23T18:26:50.208Z,79.48
2018-03-23T18:29:17.614Z,79.55
2018-03-23T18:31:44.990Z,78.76
2018-03-23T18:34:12.369Z,78.29
2018-03-23T18:36:39.761Z,78.71
2018-03-23T18:39:07.137Z,79.33
2018-03-23T18:41:34.523Z,79.33
2018-03-23T18:44:01.938Z,79.71
2018-03-23T18:46:29.318Z,79.41
2018-03-23T18:48:56.697Z,78.55
2018-03-23T18:51:24.111Z,78.62
2018-03-23T18:53:51.493Z,79.57
2018-03-23T18:56:18.873Z,79.31
2018-03-23T18:58:46.279Z,79.44
2018-03-23T19:01:13.668Z,79.33
2018-03-23T19:03:41.071Z,79.12
2018-03-23T19:06:08.428Z,79.40
2018-03-23T19:08:35.813Z,78.34
2018-03-23T19:11:03.197Z,79.17
2018-03-23T19:13:30.598Z,79.00
2018-03-23T19:15:57.979Z,79.15
2018-03-23T19:18:25.363Z,78.66
2018-03-23T19:20:52.753Z,79.42
2018-03-23T19:23:20.132Z,79.11
2018-03-23T19:25:47.516Z,78.42
2018-03-23T19:28:14.933Z,78.87
2018-03-23T19:30:42.328Z,79.07
2018-03-23T19:33:09.699Z,79.45
2018-03-23T19:35:37.089Z,78.24
2018-03-23T19:38:04.465Z,78.06
2018-03-23T19:40:31.844Z,78.30
2018-03-23T19:42:59.236Z,78.00
2018-03-23T19:45:26.608Z,77.81
2018-03-23T19:47:53.988Z,77.70
2018-03-23T19:50:21.377Z,78.11
2018-03-23T19:52:48.759Z,78.57
2018-03-23T19:55:16.146Z,77.98
2018-03-23T19:57:43.540Z,77.82
2018-03-23T20:00:10.916Z,77.26
2018-03-23T20:02:38.294Z,78.30
2018-03-23T20:05:05.696Z,77.43
2018-03-23T20:07:33.187Z,77.67
2018-03-23T20:10:00.564Z,77.84
2018-03-23T20:12:27.956Z,78.11
2018-03-23T20:14:55.337Z,78.08
2018-03-23T20:17:28.247Z,77.50
2018-03-23T20:19:55.633Z,77.90
2018-03-23T20:22:23.019Z,77.03
2018-03-23T20:24:50.445Z,78.15
2018-03-23T20:30:19.313Z,78.47
2018-03-23T20:32:46.689Z,78.51
2018-03-23T20:35:14.077Z,77.63
2018-03-23T20:37:41.456Z,77.69
2018-03-23T20:40:08.846Z,77.89
2018-03-23T20:42:36.224Z,78.17
2018-03-23T20:45:03.613Z,78.38
2018-03-23T20:47:30.997Z,77.84
2018-03-23T20:49:58.381Z,78.20
2018-03-23T20:52:25.769Z,79.00
2018-03-23T20:54:53.144Z,78.63
2018-03-23T20:57:20.533Z,78.55
2018-03-23T20:59:47.921Z,78.41
2018-03-23T21:02:15.300Z,79.21
2018-03-23T21:04:42.684Z,79.16
2018-03-23T21:07:10.072Z,78.88
2018-03-23T21:09:37.464Z,79.40
2018-03-23T21:12:04.841Z,79.62
2018-03-23T21:14:32.237Z,79.61
2018-03-23T21:16:59.617Z,79.30
2018-03-23T21:19:27.002Z,79.05
2018-03-23T21:21:54.384Z,80.05
2018-03-23T21:24:21.764Z,79.36
2018-03-23T21:26:49.152Z,79.41
2018-03-23T21:29:16.552Z,79.42
2018-03-23T21:31:43.928Z,80.00
2018-03-23T21:34:11.317Z,80.50
2018-03-23T21:36:38.718Z,79.46
2018-03-23T21:39:06.094Z,79.87
2018-03-23T21:41:33.484Z,80.34
2018-03-23T21:44:00.868Z,80.01
2018-03-23T21:46:28.245Z,79.95
2018-03-23T21:48:55.620Z,80.00
2018-03-23T21:51:23.018Z,80.08
2018-03-23T21:53:50.396Z,79.96
2018-03-23T21:56:18.089Z,79.96
2018-03-23T21:58:45.862Z,79.58
2018-03-23T22:01:13.240Z,80.23
2018-03-23T22:03:40.617Z,80.19
2018-03-23T22:06:08.038Z,80.20
2018-03-23T22:08:35.397Z,80.37
2018-03-23T22:11:02.776Z,80.44
2018-03-23T22:13:30.217Z,80.50
2018-03-23T22:15:57.540Z,80.11
2018-03-23T22:18:24.920Z,80.25
2018-03-23T22:20:52.329Z,79.42
2018-03-23T22:23:19.708Z,80.31
2018-03-23T22:25:47.090Z,80.27
2018-03-23T22:28:14.480Z,80.56
2018-03-23T22:30:41.857Z,80.31
2018-03-23T22:33:09.237Z,80.18
2018-03-23T22:35:36.628Z,80.32
2018-03-23T22:38:04.008Z,80.20
2018-03-23T22:40:31.400Z,80.59
2018-03-23T22:42:58.794Z,80.59
2018-03-23T22:45:26.180Z,80.63
2018-03-23T22:47:53.556Z,80.56
2018-03-23T22:50:20.948Z,79.92
2018-03-23T22:52:48.321Z,80.16
2018-03-23T22:55:15.696Z,80.10
2018-03-23T22:57:43.085Z,80.00
2018-03-23T23:00:10.465Z,80.04
2018-03-23T23:02:37.847Z,80.75
2018-03-23T23:05:05.236Z,81.18
2018-03-23T23:07:33.340Z,80.26
2018-03-23T23:10:00.723Z,80.45
2018-03-23T23:12:28.109Z,80.15
2018-03-23T23:14:55.493Z,80.02
2018-03-23T23:17:22.872Z,80.50
2018-03-23T23:19:50.261Z,80.72
2018-03-23T23:22:17.645Z,81.06
2018-03-23T23:24:45.020Z,80.95
2018-03-23T23:27:12.413Z,80.83
2018-03-23T23:29:39.785Z,80.69
2018-03-23T23:32:07.179Z,80.53
2018-03-23T23:34:34.563Z,80.79
2018-03-23T23:37:01.942Z,80.74
2018-03-23T23:39:29.320Z,81.15
2018-03-23T23:41:56.713Z,81.08
2018-03-23T23:44:24.096Z,81.25
2018-03-23T23:46:51.468Z,80.77
2018-03-23T23:49:18.865Z,80.41
2018-03-23T23:51:46.241Z,80.23
2018-03-23T23:54:13.625Z,79.94
2018-03-23T23:56:41.017Z,79.37
2018-03-23T23:59:08.392Z,78.72
